Time;durP1;ratioP1;P1;durP2;ratioP2;P2;SDS_P1;SDS_P2;PMS_P1;PMS_P2;Temp;Humidity;BMP_temperature;BMP_pressure;BME280_temperature;BME280_humidity;BME280_pressure;Samples;Min_cycle;Max_cycle;Signal;HPM_P1;HPM_P2
2023/07/25 00:00:10;;;;;;;1.38;0.63;;;11.50;99.90;;;;;;5055265;28;20052;-76
2023/07/25 00:02:36;;;;;;;4.43;0.20;;;11.50;99.90;;;;;;5074032;28;20043;-77
2023/07/25 00:05:03;;;;;;;4.40;0.60;;;11.50;99.90;;;;;;5073947;28;20107;-77
2023/07/25 00:07:29;;;;;;;4.18;0.47;;;11.50;99.90;;;;;;5056019;28;20108;-77
2023/07/25 00:09:56;;;;;;;1.90;0.10;;;11.50;99.90;;;;;;5056142;28;20466;-77
2023/07/25 00:12:22;;;;;;;3.10;0.47;;;11.40;99.90;;;;;;5055997;28;20107;-77
2023/07/25 00:14:48;;;;;;;4.22;0.20;;;11.50;99.90;;;;;;5055838;28;20390;-76
2023/07/25 00:17:13;;;;;;;1.48;0.20;;;11.50;99.90;;;;;;5073803;28;20024;-77
2023/07/25 00:19:39;;;;;;;1.40;0.38;;;11.50;99.90;;;;;;5073760;28;20032;-77
2023/07/25 00:22:05;;;;;;;1.23;0.40;;;11.40;99.90;;;;;;5074073;28;20025;-77
2023/07/25 00:24:30;;;;;;;1.27;0.17;;;11.40;99.90;;;;;;5055692;28;20016;-76
2023/07/25 00:26:56;;;;;;;3.65;0.75;;;11.40;99.90;;;;;;5055787;28;20013;-77
2023/07/25 00:29:21;;;;;;;2.40;0.20;;;11.30;99.90;;;;;;5055746;28;20373;-77
2023/07/25 00:31:47;;;;;;;2.15;0.35;;;11.40;99.90;;;;;;5073581;28;20555;-76
2023/07/25 00:34:12;;;;;;;2.95;0.30;;;11.40;99.90;;;;;;5073627;28;20025;-76
2023/07/25 00:36:38;;;;;;;3.92;0.28;;;11.30;99.90;;;;;;5073564;28;20024;-76
2023/07/25 00:39:04;;;;;;;3.72;0.65;;;11.30;99.90;;;;;;5073509;28;20158;-76
2023/07/25 00:41:29;;;;;;;4.55;0.60;;;11.30;99.90;;;;;;5073527;28;20035;-77
2023/07/25 00:43:55;;;;;;;1.08;0.20;;;11.30;99.90;;;;;;5055463;28;20020;-77
2023/07/25 00:46:20;;;;;;;4.93;0.40;;;11.20;99.90;;;;;;5073460;28;20021;-77
2023/07/25 00:48:46;;;;;;;2.45;0.40;;;11.30;99.90;;;;;;5073600;28;20048;-77
2023/07/25 00:51:12;;;;;;;3.17;0.22;;;11.30;99.90;;;;;;5055502;28;20020;-76
2023/07/25 00:53:38;;;;;;;6.15;0.82;;;11.20;99.90;;;;;;5073330;28;20547;-77
2023/07/25 00:56:05;;;;;;;4.85;0.35;;;11.20;99.90;;;;;;5055293;28;20032;-76
2023/07/25 00:58:31;;;;;;;7.85;0.40;;;11.10;99.90;;;;;;5055133;28;20035;-76
2023/07/25 01:01:04;;;;;;;4.45;1.13;;;11.10;99.90;;;;;;5073192;28;20021;-76
2023/07/25 01:03:37;;;;;;;2.15;0.88;;;11.10;99.90;;;;;;5073187;28;20099;-77
2023/07/25 01:06:04;;;;;;;2.53;0.65;;;11.10;99.90;;;;;;5073292;28;20016;-77
2023/07/25 01:08:30;;;;;;;5.30;0.40;;;11.10;99.90;;;;;;5055398;28;20500;-77
2023/07/25 01:10:55;;;;;;;3.25;0.32;;;11.10;99.90;;;;;;5073011;28;20086;-77
2023/07/25 01:13:21;;;;;;;4.32;0.22;;;11.10;99.90;;;;;;5073156;28;20104;-76
2023/07/25 01:15:49;;;;;;;4.18;0.63;;;11.10;99.90;;;;;;5055203;28;20021;-77
2023/07/25 01:18:15;;;;;;;1.75;0.35;;;11.10;99.90;;;;;;5055129;28;20487;-77
2023/07/25 01:20:41;;;;;;;0.70;0.10;;;11.10;99.90;;;;;;5055117;28;20052;-77
2023/07/25 01:23:08;;;;;;;9.10;0.85;;;11.10;99.90;;;;;;5073147;28;20032;-77
2023/07/25 01:25:34;;;;;;;3.22;0.40;;;11.00;99.90;;;;;;5055215;28;20025;-76
2023/07/25 01:27:59;;;;;;;1.45;0.30;;;11.00;99.90;;;;;;5073190;28;20453;-76
2023/07/25 01:30:25;;;;;;;2.50;0.60;;;11.00;99.90;;;;;;5055108;28;20027;-76
2023/07/25 01:32:52;;;;;;;5.20;0.40;;;11.00;99.90;;;;;;5073353;28;20023;-77
2023/07/25 01:35:17;;;;;;;2.40;0.17;;;11.00;99.90;;;;;;5073004;28;20023;-77
2023/07/25 01:37:43;;;;;;;1.17;0.15;;;11.00;99.90;;;;;;5055000;28;20021;-77
2023/07/25 01:40:09;;;;;;;2.70;0.30;;;10.90;99.90;;;;;;5054843;28;20056;-76
2023/07/25 01:42:35;;;;;;;3.65;0.40;;;10.90;99.90;;;;;;5054925;28;20098;-76
2023/07/25 01:45:00;;;;;;;3.60;0.65;;;10.90;99.90;;;;;;5073468;28;20032;-76
2023/07/25 01:47:26;;;;;;;3.40;0.28;;;10.90;99.90;;;;;;5054964;28;20034;-76
2023/07/25 01:49:52;;;;;;;3.70;0.52;;;10.90;99.90;;;;;;5073198;28;20547;-77
2023/07/25 01:52:19;;;;;;;3.95;0.35;;;10.90;99.90;;;;;;5072838;28;20021;-76
2023/07/25 01:54:44;;;;;;;1.85;0.30;;;10.90;99.90;;;;;;5072764;28;20021;-76
2023/07/25 01:57:10;;;;;;;4.45;0.65;;;10.80;99.90;;;;;;5072643;28;20036;-77
2023/07/25 01:59:35;;;;;;;2.28;0.20;;;10.80;99.90;;;;;;5072853;28;20085;-76
2023/07/25 02:02:01;;;;;;;3.42;0.40;;;10.80;99.90;;;;;;5072853;28;20162;-76
2023/07/25 02:04:27;;;;;;;5.88;0.20;;;10.80;99.90;;;;;;5072707;28;20032;-76
2023/07/25 02:06:52;;;;;;;5.40;0.40;;;10.80;99.90;;;;;;5072792;28;20071;-76
2023/07/25 02:09:18;;;;;;;3.72;1.20;;;10.70;99.90;;;;;;5072761;28;20036;-76
2023/07/25 02:11:43;;;;;;;2.47;0.70;;;10.70;99.90;;;;;;5072973;28;20028;-76
2023/07/25 02:14:09;;;;;;;2.65;0.45;;;10.70;99.90;;;;;;5073488;28;20024;-76
2023/07/25 02:16:36;;;;;;;3.47;0.22;;;10.70;99.90;;;;;;5054602;28;20059;-76
2023/07/25 02:19:03;;;;;;;1.98;0.20;;;10.60;99.90;;;;;;5055429;28;20028;-76
2023/07/25 02:21:28;;;;;;;2.45;0.40;;;10.60;99.90;;;;;;5072637;28;20472;-76
2023/07/25 02:23:54;;;;;;;2.63;0.40;;;10.80;99.90;;;;;;5075685;28;20016;-76
2023/07/25 02:26:19;;;;;;;2.10;0.60;;;10.60;99.90;;;;;;5076229;28;20099;-76
2023/07/25 02:28:45;;;;;;;2.38;0.15;;;10.60;99.90;;;;;;5076660;28;20032;-77
2023/07/25 02:31:11;;;;;;;2.85;0.10;;;10.60;99.90;;;;;;5075954;28;20028;-77
2023/07/25 02:33:39;;;;;;;1.48;0.03;;;10.60;99.90;;;;;;5057958;28;20028;-76
2023/07/25 02:36:05;;;;;;;2.15;0.30;;;10.50;99.90;;;;;;5057919;28;20024;-76
2023/07/25 02:38:31;;;;;;;1.60;0.20;;;10.50;99.90;;;;;;5075879;28;20035;-76
2023/07/25 02:40:56;;;;;;;1.95;0.32;;;10.50;99.90;;;;;;5057800;28;20472;-76
2023/07/25 02:43:22;;;;;;;2.38;0.10;;;10.50;99.90;;;;;;5075831;28;20025;-76
2023/07/25 02:45:49;;;;;;;2.85;0.45;;;10.50;99.90;;;;;;5057756;28;20472;-76
2023/07/25 02:48:15;;;;;;;3.78;0.22;;;10.40;99.90;;;;;;5057730;28;20025;-76
2023/07/25 02:50:40;;;;;;;1.15;0.38;;;10.40;99.90;;;;;;5075586;28;20032;-76
2023/07/25 02:53:06;;;;;;;4.38;0.55;;;10.40;99.90;;;;;;5075497;28;20099;-76
2023/07/25 02:55:32;;;;;;;0.95;0.10;;;10.50;99.90;;;;;;5075515;28;20108;-76
2023/07/25 02:57:57;;;;;;;1.95;0.20;;;10.50;99.90;;;;;;5075356;28;20058;-76
2023/07/25 03:00:24;;;;;;;2.70;0.10;;;10.50;99.90;;;;;;5075327;28;20031;-76
2023/07/25 03:02:49;;;;;;;5.32;0.60;;;10.50;99.90;;;;;;5075323;28;20086;-76
2023/07/25 03:05:15;;;;;;;1.98;0.50;;;10.50;99.90;;;;;;5075335;28;20028;-76
2023/07/25 03:07:41;;;;;;;3.08;0.40;;;10.50;99.90;;;;;;5057393;28;20021;-76
2023/07/25 03:10:07;;;;;;;2.72;0.25;;;10.40;99.90;;;;;;5075267;28;20059;-76
2023/07/25 03:12:33;;;;;;;2.28;0.52;;;10.40;99.90;;;;;;5057431;28;20115;-76
2023/07/25 03:14:59;;;;;;;2.45;0.30;;;10.50;99.90;;;;;;5075022;28;20524;-76
2023/07/25 03:17:24;;;;;;;1.90;0.25;;;10.50;99.90;;;;;;5075153;28;20024;-76
2023/07/25 03:19:50;;;;;;;2.95;0.28;;;10.50;99.90;;;;;;5056997;28;20025;-76
2023/07/25 03:22:18;;;;;;;2.83;0.68;;;10.40;99.90;;;;;;5057041;28;20028;-77
2023/07/25 03:24:44;;;;;;;0.80;0.22;;;10.40;99.90;;;;;;5056949;28;20091;-76
2023/07/25 03:27:10;;;;;;;2.17;0.20;;;10.30;99.90;;;;;;5057146;28;20032;-76
2023/07/25 03:29:35;;;;;;;2.85;0.00;;;10.40;99.90;;;;;;5074974;28;20057;-76
2023/07/25 03:32:01;;;;;;;2.25;0.10;;;10.40;99.90;;;;;;5056958;28;20029;-76
2023/07/25 03:34:26;;;;;;;1.27;0.10;;;10.40;99.90;;;;;;5074555;28;20387;-76
2023/07/25 03:36:52;;;;;;;2.63;0.40;;;10.50;99.90;;;;;;5074741;28;20025;-77
2023/07/25 03:39:18;;;;;;;3.08;0.40;;;10.50;99.90;;;;;;5056769;28;20360;-76
2023/07/25 03:41:43;;;;;;;3.67;0.50;;;10.50;99.90;;;;;;5074583;28;20095;-76
2023/07/25 03:44:12;;;;;;;0.70;0.10;;;10.60;99.90;;;;;;5056497;28;20483;-76
2023/07/25 03:46:37;;;;;;;3.38;0.20;;;10.60;99.90;;;;;;5074473;28;20498;-76
2023/07/25 03:49:03;;;;;;;3.38;0.30;;;10.70;99.90;;;;;;5056447;28;20024;-76
2023/07/25 03:51:28;;;;;;;2.88;0.43;;;10.80;99.90;;;;;;5074395;28;20029;-76
2023/07/25 03:53:54;;;;;;;2.40;0.47;;;11.60;99.90;;;;;;5056348;28;20438;-76
2023/07/25 03:56:20;;;;;;;2.75;0.30;;;10.90;99.90;;;;;;5056374;28;20391;-76
2023/07/25 03:58:45;;;;;;;2.67;0.77;;;10.90;99.90;;;;;;5056090;28;20040;-76
2023/07/25 04:01:11;;;;;;;2.15;0.28;;;10.90;99.90;;;;;;5074210;28;20017;-76
2023/07/25 04:03:36;;;;;;;3.42;0.30;;;10.90;99.90;;;;;;5074116;28;20016;-76
2023/07/25 04:06:02;;;;;;;2.00;0.38;;;11.00;99.90;;;;;;5074595;28;20074;-76
2023/07/25 04:08:27;;;;;;;0.77;0.45;;;11.00;99.90;;;;;;5074029;28;20028;-76
2023/07/25 04:10:53;;;;;;;3.38;0.30;;;11.00;99.90;;;;;;5073913;28;20028;-76
2023/07/25 04:13:18;;;;;;;2.55;0.30;;;11.60;99.90;;;;;;5056140;28;20400;-76
2023/07/25 04:15:44;;;;;;;1.17;0.40;;;11.10;99.90;;;;;;5055957;28;20028;-76
2023/07/25 04:18:09;;;;;;;3.70;0.30;;;11.20;99.90;;;;;;5073719;28;20472;-76
2023/07/25 04:20:35;;;;;;;1.75;0.25;;;11.20;99.90;;;;;;5073769;28;20545;-76
2023/07/25 04:23:01;;;;;;;2.45;0.35;;;11.20;99.90;;;;;;5073745;28;20020;-76
2023/07/25 04:25:26;;;;;;;6.90;1.17;;;11.20;99.90;;;;;;5073637;28;20502;-76
2023/07/25 04:27:52;;;;;;;4.32;0.17;;;11.30;99.90;;;;;;5074509;28;20099;-77
2023/07/25 04:30:17;;;;;;;4.50;0.57;;;11.30;99.90;;;;;;5073656;28;20035;-76
2023/07/25 04:32:43;;;;;;;4.55;0.68;;;11.40;99.90;;;;;;5073550;28;20027;-76
2023/07/25 04:35:08;;;;;;;4.80;0.70;;;11.40;99.90;;;;;;5073570;28;20031;-76
2023/07/25 04:37:34;;;;;;;3.55;0.55;;;11.50;99.90;;;;;;5073486;28;20103;-76
2023/07/25 04:39:59;;;;;;;6.88;0.35;;;11.60;99.90;;;;;;5073499;28;20032;-76
2023/07/25 04:42:25;;;;;;;3.47;0.85;;;11.60;99.90;;;;;;5073467;28;20024;-76
2023/07/25 04:44:50;;;;;;;4.35;0.40;;;11.70;99.90;;;;;;5055288;28;20020;-76
2023/07/25 04:47:16;;;;;;;2.65;0.10;;;11.80;99.90;;;;;;5073415;28;20036;-76
2023/07/25 04:49:42;;;;;;;3.63;0.40;;;11.90;99.90;;;;;;5055359;28;20021;-76
2023/07/25 04:52:07;;;;;;;9.18;0.50;;;11.90;99.90;;;;;;5055374;28;20399;-77
2023/07/25 04:54:33;;;;;;;1.40;0.32;;;12.00;99.90;;;;;;5073260;28;20024;-76
2023/07/25 04:56:58;;;;;;;3.83;0.55;;;12.40;99.90;;;;;;5073101;28;20029;-76
2023/07/25 04:59:24;;;;;;;4.47;0.32;;;12.20;99.90;;;;;;5055341;28;20033;-76
2023/07/25 05:01:49;;;;;;;1.45;0.15;;;12.20;99.90;;;;;;5055278;28;20017;-77
2023/07/25 05:04:15;;;;;;;11.65;1.08;;;12.30;99.90;;;;;;5055198;28;20127;-76
2023/07/25 05:06:40;;;;;;;4.82;0.57;;;12.40;99.90;;;;;;5073297;28;20017;-76
2023/07/25 05:09:06;;;;;;;3.90;0.63;;;13.00;99.90;;;;;;5055555;28;20115;-76
2023/07/25 05:11:32;;;;;;;4.22;0.20;;;12.60;99.90;;;;;;5073044;28;20112;-76
2023/07/25 05:13:58;;;;;;;3.97;0.30;;;13.70;99.90;;;;;;5072998;28;20028;-76
2023/07/25 05:16:23;;;;;;;5.03;0.20;;;12.80;99.90;;;;;;5073132;28;20082;-76
2023/07/25 05:18:49;;;;;;;3.67;0.10;;;14.10;99.90;;;;;;5054999;28;20107;-76
2023/07/25 05:21:14;;;;;;;5.90;0.20;;;13.00;99.90;;;;;;5055052;28;20063;-76
2023/07/25 05:23:40;;;;;;;6.13;0.22;;;13.10;99.90;;;;;;5072966;28;20107;-76
2023/07/25 05:26:06;;;;;;;4.15;0.40;;;13.30;99.90;;;;;;5055080;28;20047;-77
2023/07/25 05:28:31;;;;;;;3.83;0.00;;;13.40;99.90;;;;;;5073027;28;20024;-76
2023/07/25 05:30:57;;;;;;;1.85;0.10;;;13.50;99.90;;;;;;5055070;28;20097;-76
2023/07/25 05:33:22;;;;;;;6.18;0.85;;;13.70;99.90;;;;;;5073020;28;20052;-76
2023/07/25 05:35:48;;;;;;;4.25;0.30;;;13.80;99.90;;;;;;5055113;28;20131;-76
2023/07/25 05:38:13;;;;;;;4.80;0.00;;;14.00;99.90;;;;;;5054797;28;20082;-76
2023/07/25 05:40:39;;;;;;;4.32;0.40;;;14.20;99.90;;;;;;5054962;28;20016;-76
2023/07/25 05:43:04;;;;;;;2.55;0.10;;;14.30;99.90;;;;;;5073021;28;20017;-76
2023/07/25 05:45:30;;;;;;;7.38;0.52;;;15.90;99.90;;;;;;5054775;28;20021;-76
2023/07/25 05:47:55;;;;;;;2.30;0.13;;;14.40;99.90;;;;;;5054851;28;20024;-77
2023/07/25 05:50:21;;;;;;;1.08;0.20;;;14.40;99.90;;;;;;5054676;28;20025;-76
2023/07/25 05:52:46;;;;;;;3.05;0.28;;;14.40;99.90;;;;;;5073345;28;20059;-76
2023/07/25 05:55:12;;;;;;;4.90;0.00;;;14.40;99.90;;;;;;5054835;28;20078;-76
2023/07/25 05:57:37;;;;;;;3.45;0.38;;;14.40;99.90;;;;;;5074136;28;20033;-76
2023/07/25 06:00:04;;;;;;;3.97;0.32;;;14.40;99.90;;;;;;5058536;28;20031;-76
2023/07/25 06:02:29;;;;;;;2.30;0.00;;;14.40;99.90;;;;;;5077071;28;20043;-76
2023/07/25 06:04:55;;;;;;;10.43;1.27;;;14.40;99.90;;;;;;5058406;28;20017;-76
2023/07/25 06:07:20;;;;;;;5.15;0.55;;;14.40;99.90;;;;;;5076372;28;20365;-76
2023/07/25 06:09:46;;;;;;;4.13;0.60;;;14.50;99.90;;;;;;5058440;28;20119;-76
2023/07/25 06:12:13;;;;;;;2.40;0.17;;;14.50;99.90;;;;;;5076345;28;20108;-76
2023/07/25 06:14:39;;;;;;;2.08;0.32;;;14.60;99.90;;;;;;5058254;28;20020;-76
2023/07/25 06:17:05;;;;;;;7.28;0.77;;;14.70;99.90;;;;;;5076207;28;20150;-76
2023/07/25 06:19:30;;;;;;;2.22;0.05;;;14.70;99.90;;;;;;5058073;28;20017;-76
2023/07/25 06:21:56;;;;;;;5.53;0.52;;;14.80;99.90;;;;;;5076100;28;20028;-76
2023/07/25 06:24:22;;;;;;;2.72;0.32;;;14.80;99.90;;;;;;5058113;28;20039;-76
2023/07/25 06:26:48;;;;;;;3.08;0.10;;;14.90;99.90;;;;;;5057975;28;20017;-75
2023/07/25 06:29:13;;;;;;;3.50;0.32;;;14.90;99.90;;;;;;5076018;28;20025;-75
2023/07/25 06:31:40;;;;;;;5.13;0.13;;;14.90;99.90;;;;;;5075907;28;20074;-75
2023/07/25 06:34:06;;;;;;;2.10;0.10;;;15.00;99.90;;;;;;5075680;28;20082;-75
2023/07/25 06:36:31;;;;;;;5.45;0.47;;;15.10;99.90;;;;;;5075806;28;20029;-75
2023/07/25 06:38:57;;;;;;;2.00;0.05;;;15.10;99.90;;;;;;5057743;28;20033;-75
2023/07/25 06:41:22;;;;;;;1.70;0.10;;;15.10;99.90;;;;;;5075676;28;20035;-75
2023/07/25 06:43:48;;;;;;;8.18;0.15;;;15.10;99.90;;;;;;5057669;28;20020;-75
2023/07/25 06:46:14;;;;;;;1.30;0.47;;;15.10;99.90;;;;;;5075645;28;20044;-75
2023/07/25 06:48:39;;;;;;;1.42;0.00;;;15.10;99.90;;;;;;5076089;28;20104;-75
2023/07/25 06:51:05;;;;;;;3.65;0.45;;;15.00;99.90;;;;;;5075464;28;20096;-75
2023/07/25 06:53:31;;;;;;;4.07;0.00;;;15.10;99.90;;;;;;5057575;28;20028;-75
2023/07/25 06:55:56;;;;;;;2.45;0.00;;;15.20;99.90;;;;;;5075996;28;20052;-75
2023/07/25 06:58:22;;;;;;;1.98;0.10;;;15.40;99.90;;;;;;5057219;28;20032;-75
2023/07/25 07:00:47;;;;;;;4.15;0.52;;;15.60;99.90;;;;;;5075354;28;20044;-75
2023/07/25 07:03:13;;;;;;;1.75;0.00;;;15.90;99.90;;;;;;5075160;28;20020;-75
2023/07/25 07:05:39;;;;;;;1.50;0.10;;;16.00;99.90;;;;;;5075237;28;20017;-75
2023/07/25 07:08:04;;;;;;;7.57;0.00;;;16.20;99.90;;;;;;5074719;28;20086;-75
2023/07/25 07:10:32;;;;;;;2.90;0.10;;;16.30;99.90;;;;;;5075185;28;20025;-75
2023/07/25 07:12:58;;;;;;;0.77;0.00;;;16.60;99.90;;;;;;5075157;28;20415;-75
2023/07/25 07:15:26;;;;;;;1.65;0.00;;;16.70;99.90;;;;;;5075025;28;20031;-75
2023/07/25 07:17:55;;;;;;;3.53;0.05;;;16.90;99.90;;;;;;5075097;28;20134;-75
2023/07/25 07:20:21;;;;;;;1.80;0.00;;;16.90;99.90;;;;;;5056883;28;20059;-75
2023/07/25 07:22:46;;;;;;;1.17;0.10;;;17.10;99.90;;;;;;5075032;28;20063;-75
2023/07/25 07:25:12;;;;;;;1.20;0.00;;;17.10;99.90;;;;;;5074830;28;20027;-76
2023/07/25 07:27:38;;;;;;;6.57;0.08;;;17.20;99.90;;;;;;5056979;28;20059;-76
2023/07/25 07:30:04;;;;;;;0.70;0.00;;;17.20;99.90;;;;;;5075296;28;20024;-75
2023/07/25 07:32:29;;;;;;;0.98;0.00;;;17.20;99.90;;;;;;5056822;28;20028;-75
2023/07/25 07:34:55;;;;;;;3.50;0.00;;;17.30;99.90;;;;;;5075117;28;20089;-74
2023/07/25 07:37:21;;;;;;;1.23;0.00;;;17.50;99.90;;;;;;5075108;28;20033;-76
2023/07/25 07:39:46;;;;;;;1.55;0.00;;;18.20;99.90;;;;;;5074492;28;20458;-75
2023/07/25 07:42:13;;;;;;;0.65;0.00;;;17.80;99.90;;;;;;5056485;28;20031;-76
2023/07/25 07:44:38;;;;;;;1.55;0.28;;;17.80;99.90;;;;;;5056523;28;20012;-75
2023/07/25 07:47:04;;;;;;;0.73;0.00;;;17.80;99.90;;;;;;5056527;28;20019;-75
2023/07/25 07:49:32;;;;;;;0.93;0.03;;;17.70;99.90;;;;;;5074369;28;20103;-75
2023/07/25 07:51:58;;;;;;;1.70;0.20;;;17.70;99.90;;;;;;5074351;28;20039;-75
2023/07/25 07:54:23;;;;;;;1.38;0.38;;;17.80;99.90;;;;;;5074164;28;20672;-75
2023/07/25 07:56:49;;;;;;;0.65;0.00;;;17.70;99.90;;;;;;5056105;28;20392;-75
2023/07/25 07:59:14;;;;;;;0.80;0.30;;;17.70;99.90;;;;;;5074013;28;20033;-75
2023/07/25 08:01:40;;;;;;;0.80;0.00;;;17.80;99.90;;;;;;5074075;28;20024;-75
2023/07/25 08:04:05;;;;;;;1.55;0.00;;;17.80;99.90;;;;;;5074054;28;20033;-75
2023/07/25 08:06:31;;;;;;;2.13;0.00;;;18.00;99.90;;;;;;5056135;28;20024;-75
2023/07/25 08:08:56;;;;;;;0.30;0.00;;;18.00;99.90;;;;;;5056092;28;20141;-75
2023/07/25 08:11:22;;;;;;;1.10;0.00;;;18.10;99.90;;;;;;5055936;28;20020;-75
2023/07/25 08:13:47;;;;;;;0.10;0.00;;;18.30;99.90;;;;;;5055895;28;20119;-75
2023/07/25 08:16:13;;;;;;;2.90;0.25;;;18.20;99.90;;;;;;5055932;28;20021;-75
2023/07/25 08:18:38;;;;;;;1.23;0.15;;;18.20;99.90;;;;;;5073690;28;20500;-75
2023/07/25 08:21:04;;;;;;;1.15;0.20;;;18.20;99.90;;;;;;5072966;28;20423;-75
2023/07/25 08:23:30;;;;;;;1.08;0.00;;;18.20;99.90;;;;;;5073689;28;20021;-75
2023/07/25 08:25:56;;;;;;;0.17;0.00;;;18.20;99.90;;;;;;5073625;28;20024;-75
2023/07/25 08:28:22;;;;;;;0.00;0.00;;;18.20;99.90;;;;;;5073650;28;20016;-75
2023/07/25 08:30:47;;;;;;;1.38;0.00;;;18.30;99.90;;;;;;5073649;28;20016;-75
2023/07/25 08:33:15;;;;;;;2.25;0.00;;;18.30;99.90;;;;;;5073448;28;20107;-75
2023/07/25 08:35:41;;;;;;;0.10;0.00;;;18.50;99.90;;;;;;5073533;28;20490;-75
2023/07/25 08:38:07;;;;;;;1.55;0.00;;;18.50;99.90;;;;;;5074127;28;20074;-75
2023/07/25 08:40:32;;;;;;;0.90;0.00;;;18.70;99.90;;;;;;5073426;28;20495;-75
2023/07/25 08:43:03;;;;;;;1.30;0.05;;;18.70;99.90;;;;;;5073448;28;20019;-75
2023/07/25 08:45:30;;;;;;;1.23;0.00;;;18.90;99.90;;;;;;5055498;28;20100;-76
2023/07/25 08:47:58;;;;;;;0.52;0.00;;;19.10;99.90;;;;;;5073349;28;20073;-76
2023/07/25 08:50:24;;;;;;;;;;;19.30;99.90;;;;;;5073767;28;20392;-75
2023/07/25 08:52:52;;;;;;;2.08;0.00;;;19.30;99.90;;;;;;5055303;28;19904;-75
2023/07/25 08:55:19;;;;;;;1.85;0.10;;;19.40;99.90;;;;;;5055243;28;20163;-75
2023/07/25 08:57:46;;;;;;;0.77;0.00;;;19.30;99.90;;;;;;5073543;28;20484;-75
2023/07/25 09:00:13;;;;;;;1.48;0.15;;;19.30;99.90;;;;;;5073264;28;20021;-75
2023/07/25 09:02:39;;;;;;;2.25;0.00;;;19.20;99.90;;;;;;5073228;28;20025;-75
2023/07/25 09:05:06;;;;;;;3.60;0.20;;;19.20;99.90;;;;;;5073313;28;20450;-75
2023/07/25 09:07:31;;;;;;;2.83;0.20;;;19.10;99.90;;;;;;5055176;28;20392;-75
2023/07/25 09:09:58;;;;;;;1.30;0.00;;;18.90;99.90;;;;;;5073781;28;20025;-75
2023/07/25 09:12:24;;;;;;;1.80;0.00;;;19.00;99.90;;;;;;5073301;28;20020;-75
2023/07/25 09:14:51;;;;;;;0.95;0.00;;;19.00;99.90;;;;;;5073038;28;20055;-75
2023/07/25 09:17:19;;;;;;;1.58;0.03;;;19.10;99.90;;;;;;5055140;28;20060;-75
2023/07/25 09:19:46;;;;;;;1.25;0.00;;;19.20;99.90;;;;;;5072931;28;20025;-75
2023/07/25 09:22:32;;;;;;;1.08;0.00;;;19.40;99.90;;;;;;5055002;28;20021;-75
2023/07/25 09:24:59;;;;;;;0.75;0.10;;;19.60;99.90;;;;;;5072887;28;20024;-76
2023/07/25 09:27:26;;;;;;;1.70;0.00;;;19.80;99.90;;;;;;5054919;28;20035;-75
2023/07/25 09:29:53;;;;;;;0.40;0.00;;;20.00;99.90;;;;;;5054928;28;20059;-74
2023/07/25 09:32:24;;;;;;;0.95;0.00;;;20.00;99.90;;;;;;5075645;28;20024;-75
2023/07/25 09:34:54;;;;;;;1.48;0.00;;;20.00;99.90;;;;;;5076907;28;20044;-75
2023/07/25 09:37:19;;;;;;;3.20;0.30;;;20.00;99.90;;;;;;5077319;28;20081;-75
2023/07/25 09:39:45;;;;;;;1.13;0.00;;;19.90;99.90;;;;;;5076760;28;20096;-75
2023/07/25 09:42:11;;;;;;;1.00;0.00;;;19.90;99.90;;;;;;5076820;28;20024;-74
2023/07/25 09:44:36;;;;;;;0.98;0.00;;;20.00;99.90;;;;;;5058766;28;20028;-75
2023/07/25 09:47:02;;;;;;;0.60;0.00;;;20.10;99.90;;;;;;5076664;28;20023;-76
2023/07/25 09:49:27;;;;;;;2.50;0.00;;;20.20;99.80;;;;;;5058617;28;20415;-75
2023/07/25 09:52:00;;;;;;;1.65;0.00;;;20.50;99.90;;;;;;5058694;28;20082;-75
2023/07/25 09:54:26;;;;;;;0.98;0.00;;;20.80;99.90;;;;;;5076459;28;20085;-76
2023/07/25 09:56:52;;;;;;;2.33;0.17;;;21.00;99.70;;;;;;5076359;28;20032;-76
2023/07/25 09:59:18;;;;;;;0.43;0.00;;;21.00;98.00;;;;;;5058385;28;20028;-75
2023/07/25 10:01:43;;;;;;;1.58;0.00;;;21.00;99.10;;;;;;5076372;28;20031;-76
2023/07/25 10:04:10;;;;;;;1.55;0.00;;;21.00;96.90;;;;;;5058308;28;20471;-75
2023/07/25 10:06:36;;;;;;;1.38;0.00;;;21.00;98.40;;;;;;5058316;28;20546;-75
2023/07/25 10:09:03;;;;;;;1.38;0.10;;;21.20;96.90;;;;;;5058262;28;20020;-75
2023/07/25 10:11:30;;;;;;;0.93;0.25;;;21.40;97.00;;;;;;5058270;28;20025;-76
2023/07/25 10:13:56;;;;;;;1.02;0.00;;;21.40;96.70;;;;;;5076805;28;20337;-74
2023/07/25 10:16:22;;;;;;;1.75;0.10;;;21.20;96.90;;;;;;5076082;28;20048;-75
2023/07/25 10:18:57;;;;;;;3.38;0.15;;;20.90;97.50;;;;;;5076034;28;20388;-75
2023/07/25 10:21:27;;;;;;;0.10;0.00;;;20.90;99.30;;;;;;5076005;28;20029;-76
2023/07/25 10:23:58;;;;;;;1.45;0.00;;;21.30;98.60;;;;;;5075961;28;20050;-75
2023/07/25 10:26:26;;;;;;;1.05;0.28;;;;;;;;;;5076448;28;20024;-75
2023/07/25 10:28:52;;;;;;;1.00;0.00;;;21.80;95.30;;;;;;5075996;28;20494;-75
2023/07/25 10:31:22;;;;;;;2.88;0.10;;;21.90;93.00;;;;;;5075848;28;20020;-75
2023/07/25 10:33:57;;;;;;;3.05;0.10;;;21.90;93.90;;;;;;5075735;28;20021;-75
2023/07/25 10:36:24;;;;;;;2.15;0.10;;;21.40;94.40;;;;;;5057916;28;20028;-75
2023/07/25 10:38:50;;;;;;;5.70;0.00;;;21.30;95.80;;;;;;5075685;28;20017;-75
2023/07/25 10:41:19;;;;;;;6.85;0.60;;;21.00;97.30;;;;;;5076207;28;20017;-75
2023/07/25 10:43:55;;;;;;;2.28;0.00;;;20.70;98.20;;;;;;5074769;28;20024;-75
2023/07/25 10:46:25;;;;;;;0.80;0.00;;;20.60;98.80;;;;;;5075796;28;20025;-75
2023/07/25 10:48:53;;;;;;;2.05;0.00;;;20.40;98.00;;;;;;5057541;28;20484;-75
2023/07/25 10:51:21;;;;;;;1.30;0.00;;;20.40;99.80;;;;;;5057569;28;20115;-75
2023/07/25 10:54:25;;;;;;;0.57;0.20;;;20.70;99.80;;;;;;5075407;28;20063;-75
2023/07/25 10:57:09;;;;;;;0.15;0.00;;;21.30;98.50;;;;;;4974287;28;20041;-76
2023/07/25 11:00:04;;;;;;;1.98;0.00;;;21.50;96.90;;;;;;4958327;28;20035;-75
2023/07/25 11:02:34;;;;;;;1.92;0.00;;;21.50;97.80;;;;;;5054592;28;20032;-75
2023/07/25 11:05:11;;;;;;;0.50;0.00;;;21.60;97.00;;;;;;5075182;28;20498;-75
2023/07/25 11:07:46;;;;;;;0.20;0.00;;;22.10;98.00;;;;;;5075207;28;20464;-75
2023/07/25 11:10:18;;;;;;;2.17;0.10;;;22.30;96.90;;;;;;5075179;28;20391;-76
2023/07/25 11:12:48;;;;;;;0.57;0.00;;;22.20;96.10;;;;;;5057169;28;20032;-75
2023/07/25 11:15:14;;;;;;;0.32;0.10;;;22.00;96.20;;;;;;5075008;28;20028;-75
2023/07/25 11:17:41;;;;;;;0.25;0.00;;;21.80;95.10;;;;;;5056948;28;20029;-75
2023/07/25 11:20:11;;;;;;;0.22;0.00;;;21.50;97.50;;;;;;5074953;28;20031;-75
2023/07/25 11:22:36;;;;;;;0.82;0.00;;;21.40;97.10;;;;;;5075530;28;20032;-75
2023/07/25 11:25:06;;;;;;;0.63;0.08;;;21.30;96.50;;;;;;5074868;28;20021;-75
2023/07/25 11:27:31;;;;;;;0.63;0.00;;;21.30;96.80;;;;;;5074851;28;20020;-75
2023/07/25 11:30:16;;;;;;;0.55;0.00;;;21.30;96.70;;;;;;5074664;28;20021;-75
2023/07/25 11:32:47;;;;;;;0.50;0.00;;;21.30;96.40;;;;;;5057186;28;20050;-75
2023/07/25 11:35:14;;;;;;;0.77;0.00;;;21.30;96.50;;;;;;5074824;28;20029;-76
2023/07/25 11:37:40;;;;;;;1.55;0.25;;;21.50;96.70;;;;;;5074568;28;20027;-75
2023/07/25 11:40:14;;;;;;;2.75;0.10;;;21.60;95.90;;;;;;5056807;28;20021;-75
2023/07/25 11:42:42;;;;;;;0.25;0.08;;;21.60;95.80;;;;;;5074953;28;20028;-75
2023/07/25 11:45:10;;;;;;;0.25;0.00;;;21.60;97.40;;;;;;5056483;28;20017;-75
2023/07/25 11:47:37;;;;;;;0.93;0.00;;;21.50;97.40;;;;;;5056576;28;20048;-75
2023/07/25 11:50:05;;;;;;;0.75;0.00;;;21.40;98.00;;;;;;5056424;28;20060;-75
2023/07/25 11:52:32;;;;;;;0.65;0.05;;;21.30;97.30;;;;;;5074866;28;20051;-75
2023/07/25 11:54:57;;;;;;;1.90;0.20;;;21.40;98.30;;;;;;5074196;28;20017;-74
2023/07/25 11:57:23;;;;;;;0.05;0.00;;;21.50;97.10;;;;;;5074065;28;20039;-76
2023/07/25 11:59:53;;;;;;;2.50;0.13;;;21.50;97.70;;;;;;5074103;28;20020;-75
2023/07/25 12:02:19;;;;;;;0.70;0.05;;;21.50;98.50;;;;;;5074159;28;20032;-75
2023/07/25 12:04:45;;;;;;;1.95;0.00;;;21.30;98.10;;;;;;5073993;28;20025;-75
2023/07/25 12:07:13;;;;;;;2.25;0.03;;;21.10;99.50;;;;;;5055998;28;20479;-75
2023/07/25 12:09:39;;;;;;;0.00;0.00;;;20.90;98.90;;;;;;5074510;28;20030;-75
2023/07/25 12:12:14;;;;;;;3.00;0.00;;;20.90;99.20;;;;;;5073940;28;20052;-75
2023/07/25 12:14:41;;;;;;;1.10;0.00;;;20.80;98.70;;;;;;5055806;28;20025;-75
2023/07/25 12:17:06;;;;;;;0.98;0.00;;;21.10;99.60;;;;;;5055822;28;20438;-75
2023/07/25 12:19:32;;;;;;;0.20;0.00;;;21.40;98.80;;;;;;5073790;28;20033;-75
2023/07/25 12:22:05;;;;;;;0.40;0.00;;;21.50;97.50;;;;;;5073724;28;20028;-75
2023/07/25 12:24:40;;;;;;;1.00;0.00;;;21.40;97.30;;;;;;5073703;28;20100;-75
2023/07/25 12:27:18;;;;;;;1.38;0.00;;;21.50;99.20;;;;;;5073675;28;20506;-75
2023/07/25 12:29:44;;;;;;;0.03;0.00;;;21.70;96.90;;;;;;5073597;28;20016;-75
2023/07/25 12:32:11;;;;;;;1.00;0.13;;;22.30;97.00;;;;;;5055595;28;20040;-75
2023/07/25 12:34:37;;;;;;;0.80;0.00;;;22.80;96.00;;;;;;5073491;28;20020;-75
2023/07/25 12:37:02;;;;;;;0.30;0.00;;;22.80;95.30;;;;;;5073492;28;20027;-76
2023/07/25 12:39:29;;;;;;;0.77;0.15;;;22.70;92.50;;;;;;5055528;28;20013;-75
2023/07/25 12:41:55;;;;;;;0.35;0.00;;;22.90;95.90;;;;;;5055644;28;20017;-75
2023/07/25 12:44:21;;;;;;;0.50;0.00;;;23.50;95.20;;;;;;5073321;28;20032;-75